Home   Weather   USA   Montrose   Past weeks
Flag for USA

Past Weather in Montrose, Colorado, USA — Yesterday and Last 2 Weeks

Currently: 69 °F. Clear. (Weather station: Montrose Regional Airport, USA). See more current weather

Past Weather in Montrose — Graph

°F

Montrose Temperature Yesterday

Maximum temperature yesterday: 91 °F (at 4:53 pm)
Minimum temperature yesterday: 58 °F (at 5:53 am)
Average temperature yesterday: 75 °F

High & Low Weather Summary for the Past Weeks

 TemperatureHumidityPressure
High99 °F (Jun 16, 2:53 pm)60% (Jun 20, 4:53 am)30.03 "Hg (Jun 20, 4:53 am)
Low48 °F (Jun 11, 5:53 am)4% (Jun 13, 1:53 pm)29.62 "Hg (Jun 7, 4:53 pm)
Average76 °F20%29.85 "Hg
* Reported Jun 6 11:53 pm — Jun 21 11:53 pm, Montrose. Weather by CustomWeather, © 2021

Note: Actual official high and low records may vary slightly from our data, if they occured in-between our weather recording intervals... More about our weather records

Montrose Weather History for the Previous 24 Hours

Scroll right to see more
 ConditionsComfort  
Time TempWeatherWind HumidityBarometerVisibility
11:53 pm
Mon, Jun 21
70 °FClear.9 mph22%29.81 "Hg10 mi
10:53 pm72 °FClear.13 mph20%29.82 "Hg10 mi
9:53 pm73 °FClear.8 mph24%29.82 "Hg10 mi
8:53 pm79 °FClear.3 mph20%29.79 "Hg10 mi
7:53 pm86 °FSunny.7 mph12%29.78 "Hg10 mi
6:53 pm89 °FSunny.14 mph10%29.79 "Hg10 mi
5:53 pm91 °FSunny.15 mph9%29.79 "Hg10 mi
4:53 pm91 °FSunny.15 mph10%29.79 "Hg10 mi
3:53 pm90 °FSunny.12 mph12%29.82 "Hg10 mi
2:53 pm89 °FSunny.10 mph12%29.84 "Hg10 mi
1:53 pm86 °FSunny.12 mph16%29.87 "Hg10 mi
12:53 pm84 °FSunny.10 mph16%29.88 "Hg10 mi
11:53 am81 °FSunny.6 mph22%29.90 "Hg10 mi
10:53 am77 °FSunny.10 mph28%29.90 "Hg10 mi
9:53 am75 °FSunny.5 mph26%29.90 "Hg10 mi
8:53 am72 °FSunny.5 mph27%29.91 "Hg10 mi
7:53 am66 °FSunny.5 mph33%29.89 "Hg10 mi
6:53 am59 °FSunny.3 mph39%29.88 "Hg10 mi
5:53 am58 °FSunny.6 mph39%29.84 "Hg10 mi
4:53 am62 °FClear.9 mph30%29.81 "Hg10 mi
3:53 am59 °FClear.7 mph38%29.81 "Hg10 mi
2:53 am61 °FClear.9 mph34%29.80 "Hg10 mi
1:53 am62 °FClear.9 mph35%29.80 "Hg10 mi
Weather by CustomWeather, © 2021

See weather overview